Terminal Aerodrome Forecast
Issued by NWS

Home | Current Version | Previous Version | Text Only | Print | Product List | Glossary On
Versions: 1 2 3 4 5 6 7 8 9 10 11 12 13 14 15 16 17
000
FTUS43 KMQT 230532
TAFCMX
TAF
KCMX 230532Z 2306/2406 01012G22KT 3SM -SHSN OVC020
      TEMPO 2306/2309 1SM -SHSN BKN008
     FM231000 36010G20KT 6SM -SHSN OVC030
     FM231200 36010KT P6SM OVC035
     FM231900 36008KT P6SM SCT035
     FM240100 01005KT P6SM BKN090
     FM240500 04007KT P6SM OVC025=

USA.gov is the U.S. government's official web portal to all federal, state and local government web resources and services.